sensor_id;sensor_type;location;lat;lon;timestamp;temperature;humidity
17483;DHT22;8858;52.308;20.994;2023-05-19T00:00:13;12.40;99.90
17483;DHT22;8858;52.308;20.994;2023-05-19T00:02:42;12.40;99.90
17483;DHT22;8858;52.308;20.994;2023-05-19T00:05:13;12.40;99.90
17483;DHT22;8858;52.308;20.994;2023-05-19T00:07:45;12.40;99.90
17483;DHT22;8858;52.308;20.994;2023-05-19T00:10:16;12.40;99.90
17483;DHT22;8858;52.308;20.994;2023-05-19T00:12:46;12.30;99.90
17483;DHT22;8858;52.308;20.994;2023-05-19T00:15:18;12.40;99.90
17483;DHT22;8858;52.308;20.994;2023-05-19T00:17:47;12.40;99.90
17483;DHT22;8858;52.308;20.994;2023-05-19T00:20:19;12.40;99.90
17483;DHT22;8858;52.308;20.994;2023-05-19T00:22:48;12.30;99.90
17483;DHT22;8858;52.308;20.994;2023-05-19T00:25:16;12.30;99.90
17483;DHT22;8858;52.308;20.994;2023-05-19T00:27:45;12.30;99.90
17483;DHT22;8858;52.308;20.994;2023-05-19T00:30:14;12.30;99.90
17483;DHT22;8858;52.308;20.994;2023-05-19T00:32:46;12.30;99.90
17483;DHT22;8858;52.308;20.994;2023-05-19T00:35:14;12.20;99.90
17483;DHT22;8858;52.308;20.994;2023-05-19T00:37:43;12.20;99.90
17483;DHT22;8858;52.308;20.994;2023-05-19T00:40:13;12.20;99.90
17483;DHT22;8858;52.308;20.994;2023-05-19T00:42:41;12.20;99.90
17483;DHT22;8858;52.308;20.994;2023-05-19T00:45:14;12.30;99.90
17483;DHT22;8858;52.308;20.994;2023-05-19T00:47:43;12.30;99.90
17483;DHT22;8858;52.308;20.994;2023-05-19T00:50:13;12.20;99.90
17483;DHT22;8858;52.308;20.994;2023-05-19T00:52:42;12.20;99.90
17483;DHT22;8858;52.308;20.994;2023-05-19T00:55:11;12.30;99.90
17483;DHT22;8858;52.308;20.994;2023-05-19T00:57:42;12.20;99.90
17483;DHT22;8858;52.308;20.994;2023-05-19T01:00:12;12.20;99.90
17483;DHT22;8858;52.308;20.994;2023-05-19T01:02:40;12.20;99.90
17483;DHT22;8858;52.308;20.994;2023-05-19T01:05:10;12.10;99.90
17483;DHT22;8858;52.308;20.994;2023-05-19T01:07:41;12.10;99.90
17483;DHT22;8858;52.308;20.994;2023-05-19T01:10:11;12.10;99.90
17483;DHT22;8858;52.308;20.994;2023-05-19T01:12:39;12.10;99.90
17483;DHT22;8858;52.308;20.994;2023-05-19T01:15:10;12.00;99.90
17483;DHT22;8858;52.308;20.994;2023-05-19T01:17:43;12.00;99.90
17483;DHT22;8858;52.308;20.994;2023-05-19T01:20:15;12.00;99.90
17483;DHT22;8858;52.308;20.994;2023-05-19T01:23:13;12.00;99.90
17483;DHT22;8858;52.308;20.994;2023-05-19T01:26:08;12.00;99.90
17483;DHT22;8858;52.308;20.994;2023-05-19T01:28:57;12.00;99.90
17483;DHT22;8858;52.308;20.994;2023-05-19T01:31:36;12.00;99.90
17483;DHT22;8858;52.308;20.994;2023-05-19T01:34:05;12.00;99.90
17483;DHT22;8858;52.308;20.994;2023-05-19T01:36:36;12.00;99.90
17483;DHT22;8858;52.308;20.994;2023-05-19T01:39:06;11.90;99.90
17483;DHT22;8858;52.308;20.994;2023-05-19T01:41:36;11.90;99.90
17483;DHT22;8858;52.308;20.994;2023-05-19T01:44:07;11.90;99.90
17483;DHT22;8858;52.308;20.994;2023-05-19T01:46:38;11.90;99.90
17483;DHT22;8858;52.308;20.994;2023-05-19T01:49:09;11.90;99.90
17483;DHT22;8858;52.308;20.994;2023-05-19T01:51:38;11.90;99.90
17483;DHT22;8858;52.308;20.994;2023-05-19T01:54:09;11.90;99.90
17483;DHT22;8858;52.308;20.994;2023-05-19T01:56:41;11.90;99.90
17483;DHT22;8858;52.308;20.994;2023-05-19T01:59:23;11.90;99.90
17483;DHT22;8858;52.308;20.994;2023-05-19T02:01:57;11.80;99.90
17483;DHT22;8858;52.308;20.994;2023-05-19T02:04:32;11.90;99.90
17483;DHT22;8858;52.308;20.994;2023-05-19T02:07:14;11.80;99.90
17483;DHT22;8858;52.308;20.994;2023-05-19T02:09:51;11.80;99.90
17483;DHT22;8858;52.308;20.994;2023-05-19T02:12:27;11.70;99.90
17483;DHT22;8858;52.308;20.994;2023-05-19T02:15:03;11.70;99.90
17483;DHT22;8858;52.308;20.994;2023-05-19T02:17:35;11.70;99.90
17483;DHT22;8858;52.308;20.994;2023-05-19T02:20:09;11.60;99.90
17483;DHT22;8858;52.308;20.994;2023-05-19T02:22:38;11.60;99.90
17483;DHT22;8858;52.308;20.994;2023-05-19T02:25:07;11.60;99.90
17483;DHT22;8858;52.308;20.994;2023-05-19T02:27:37;11.60;99.90
17483;DHT22;8858;52.308;20.994;2023-05-19T02:30:07;11.60;99.90
17483;DHT22;8858;52.308;20.994;2023-05-19T02:32:37;11.60;99.90
17483;DHT22;8858;52.308;20.994;2023-05-19T02:35:06;11.60;99.90
17483;DHT22;8858;52.308;20.994;2023-05-19T02:37:35;11.60;99.90
17483;DHT22;8858;52.308;20.994;2023-05-19T02:40:04;11.70;99.90
17483;DHT22;8858;52.308;20.994;2023-05-19T02:42:33;11.80;99.90
17483;DHT22;8858;52.308;20.994;2023-05-19T02:45:03;11.70;99.90
17483;DHT22;8858;52.308;20.994;2023-05-19T02:47:31;11.70;99.90
17483;DHT22;8858;52.308;20.994;2023-05-19T02:50:06;11.70;99.90
17483;DHT22;8858;52.308;20.994;2023-05-19T02:52:35;11.70;99.90
17483;DHT22;8858;52.308;20.994;2023-05-19T02:55:08;11.60;99.90
17483;DHT22;8858;52.308;20.994;2023-05-19T02:57:42;11.60;99.90
17483;DHT22;8858;52.308;20.994;2023-05-19T03:00:11;11.60;99.90
17483;DHT22;8858;52.308;20.994;2023-05-19T03:02:42;11.60;99.90
17483;DHT22;8858;52.308;20.994;2023-05-19T03:05:12;11.70;99.90
17483;DHT22;8858;52.308;20.994;2023-05-19T03:07:41;11.70;99.90
17483;DHT22;8858;52.308;20.994;2023-05-19T03:10:09;11.70;99.90
17483;DHT22;8858;52.308;20.994;2023-05-19T03:12:39;11.60;99.90
17483;DHT22;8858;52.308;20.994;2023-05-19T03:15:08;11.60;99.90
17483;DHT22;8858;52.308;20.994;2023-05-19T03:17:38;11.60;99.90
17483;DHT22;8858;52.308;20.994;2023-05-19T03:20:08;11.50;99.90
17483;DHT22;8858;52.308;20.994;2023-05-19T03:22:39;11.50;99.90
17483;DHT22;8858;52.308;20.994;2023-05-19T03:25:09;11.50;99.90
17483;DHT22;8858;52.308;20.994;2023-05-19T03:27:37;11.50;99.90
17483;DHT22;8858;52.308;20.994;2023-05-19T03:30:06;11.60;99.90
17483;DHT22;8858;52.308;20.994;2023-05-19T03:32:45;11.60;99.90
17483;DHT22;8858;52.308;20.994;2023-05-19T03:35:15;11.60;99.90
17483;DHT22;8858;52.308;20.994;2023-05-19T03:37:45;11.70;99.90
17483;DHT22;8858;52.308;20.994;2023-05-19T03:40:15;11.60;99.90
17483;DHT22;8858;52.308;20.994;2023-05-19T03:42:45;11.60;99.90
17483;DHT22;8858;52.308;20.994;2023-05-19T03:45:13;11.60;99.90
17483;DHT22;8858;52.308;20.994;2023-05-19T03:47:45;11.60;99.90
17483;DHT22;8858;52.308;20.994;2023-05-19T03:50:34;11.70;99.90
17483;DHT22;8858;52.308;20.994;2023-05-19T03:53:15;11.70;99.90
17483;DHT22;8858;52.308;20.994;2023-05-19T03:55:44;11.80;99.90
17483;DHT22;8858;52.308;20.994;2023-05-19T03:58:14;11.80;99.90
17483;DHT22;8858;52.308;20.994;2023-05-19T04:00:43;11.80;99.90
17483;DHT22;8858;52.308;20.994;2023-05-19T04:03:14;11.90;99.90
17483;DHT22;8858;52.308;20.994;2023-05-19T04:05:43;11.90;99.90
17483;DHT22;8858;52.308;20.994;2023-05-19T04:08:11;11.90;99.90
17483;DHT22;8858;52.308;20.994;2023-05-19T04:10:42;11.90;99.90
17483;DHT22;8858;52.308;20.994;2023-05-19T04:13:10;11.90;99.90
17483;DHT22;8858;52.308;20.994;2023-05-19T04:15:42;11.90;99.90
17483;DHT22;8858;52.308;20.994;2023-05-19T04:18:10;11.90;99.90
17483;DHT22;8858;52.308;20.994;2023-05-19T04:20:39;11.90;99.90
17483;DHT22;8858;52.308;20.994;2023-05-19T04:23:08;11.90;99.90
17483;DHT22;8858;52.308;20.994;2023-05-19T04:25:38;11.90;99.90
17483;DHT22;8858;52.308;20.994;2023-05-19T04:28:08;11.90;99.90
17483;DHT22;8858;52.308;20.994;2023-05-19T04:30:37;11.90;99.90
17483;DHT22;8858;52.308;20.994;2023-05-19T04:33:05;11.90;99.90
17483;DHT22;8858;52.308;20.994;2023-05-19T04:35:38;11.90;99.90
17483;DHT22;8858;52.308;20.994;2023-05-19T04:38:08;11.90;99.90
17483;DHT22;8858;52.308;20.994;2023-05-19T04:40:41;11.90;99.90
17483;DHT22;8858;52.308;20.994;2023-05-19T04:43:11;11.90;99.90
17483;DHT22;8858;52.308;20.994;2023-05-19T04:45:39;12.00;99.90
17483;DHT22;8858;52.308;20.994;2023-05-19T04:48:10;11.90;99.90
17483;DHT22;8858;52.308;20.994;2023-05-19T04:50:38;12.00;99.90
17483;DHT22;8858;52.308;20.994;2023-05-19T04:53:08;12.00;99.90
17483;DHT22;8858;52.308;20.994;2023-05-19T04:55:37;12.00;99.90
17483;DHT22;8858;52.308;20.994;2023-05-19T04:58:14;12.10;99.90
17483;DHT22;8858;52.308;20.994;2023-05-19T05:00:43;12.10;99.90
17483;DHT22;8858;52.308;20.994;2023-05-19T05:03:12;12.10;99.90
17483;DHT22;8858;52.308;20.994;2023-05-19T05:05:47;12.10;99.90
17483;DHT22;8858;52.308;20.994;2023-05-19T05:08:16;12.10;99.90
17483;DHT22;8858;52.308;20.994;2023-05-19T05:10:53;12.10;99.90
17483;DHT22;8858;52.308;20.994;2023-05-19T05:13:23;12.10;99.90
17483;DHT22;8858;52.308;20.994;2023-05-19T05:15:52;12.10;99.90
17483;DHT22;8858;52.308;20.994;2023-05-19T05:18:22;12.20;99.90
17483;DHT22;8858;52.308;20.994;2023-05-19T05:20:52;12.20;99.90
17483;DHT22;8858;52.308;20.994;2023-05-19T05:23:24;12.20;99.90
17483;DHT22;8858;52.308;20.994;2023-05-19T05:25:53;12.20;99.90
17483;DHT22;8858;52.308;20.994;2023-05-19T05:28:22;12.30;99.90
17483;DHT22;8858;52.308;20.994;2023-05-19T05:30:52;12.20;99.90
17483;DHT22;8858;52.308;20.994;2023-05-19T05:33:22;12.20;99.90
17483;DHT22;8858;52.308;20.994;2023-05-19T05:35:53;12.10;99.90
17483;DHT22;8858;52.308;20.994;2023-05-19T05:38:23;12.20;99.90
17483;DHT22;8858;52.308;20.994;2023-05-19T05:40:51;12.20;99.90
17483;DHT22;8858;52.308;20.994;2023-05-19T05:43:19;12.20;99.90
17483;DHT22;8858;52.308;20.994;2023-05-19T05:45:56;12.30;99.90
17483;DHT22;8858;52.308;20.994;2023-05-19T05:48:25;12.30;99.90
17483;DHT22;8858;52.308;20.994;2023-05-19T05:50:55;12.30;99.90
17483;DHT22;8858;52.308;20.994;2023-05-19T05:53:29;12.30;99.90
17483;DHT22;8858;52.308;20.994;2023-05-19T05:56:00;12.30;99.90
17483;DHT22;8858;52.308;20.994;2023-05-19T05:58:41;12.40;99.90
17483;DHT22;8858;52.308;20.994;2023-05-19T06:01:11;12.40;99.90
17483;DHT22;8858;52.308;20.994;2023-05-19T06:03:42;12.40;99.90
17483;DHT22;8858;52.308;20.994;2023-05-19T06:06:14;12.40;99.90
17483;DHT22;8858;52.308;20.994;2023-05-19T06:08:43;12.40;99.90
17483;DHT22;8858;52.308;20.994;2023-05-19T06:11:11;12.60;99.90
17483;DHT22;8858;52.308;20.994;2023-05-19T06:13:40;12.50;99.90
17483;DHT22;8858;52.308;20.994;2023-05-19T06:16:32;12.50;99.90
17483;DHT22;8858;52.308;20.994;2023-05-19T06:19:00;12.50;99.90
17483;DHT22;8858;52.308;20.994;2023-05-19T06:21:29;12.50;99.90
17483;DHT22;8858;52.308;20.994;2023-05-19T06:23:57;12.50;99.90
17483;DHT22;8858;52.308;20.994;2023-05-19T06:26:25;12.50;99.90
17483;DHT22;8858;52.308;20.994;2023-05-19T06:28:54;12.50;99.90
17483;DHT22;8858;52.308;20.994;2023-05-19T06:31:25;12.60;99.90
17483;DHT22;8858;52.308;20.994;2023-05-19T06:33:58;12.60;99.90
17483;DHT22;8858;52.308;20.994;2023-05-19T06:36:27;12.70;99.90
17483;DHT22;8858;52.308;20.994;2023-05-19T06:39:00;12.60;99.90
17483;DHT22;8858;52.308;20.994;2023-05-19T06:41:30;12.60;99.90
17483;DHT22;8858;52.308;20.994;2023-05-19T06:43:58;12.70;99.90
17483;DHT22;8858;52.308;20.994;2023-05-19T06:46:31;12.80;99.90
17483;DHT22;8858;52.308;20.994;2023-05-19T06:49:01;12.80;99.90
17483;DHT22;8858;52.308;20.994;2023-05-19T06:51:35;12.80;99.90
17483;DHT22;8858;52.308;20.994;2023-05-19T06:54:03;12.70;99.90
17483;DHT22;8858;52.308;20.994;2023-05-19T06:56:32;12.70;99.90
17483;DHT22;8858;52.308;20.994;2023-05-19T06:59:02;12.80;99.90
17483;DHT22;8858;52.308;20.994;2023-05-19T07:01:34;12.80;99.90
17483;DHT22;8858;52.308;20.994;2023-05-19T07:04:04;12.80;99.90
17483;DHT22;8858;52.308;20.994;2023-05-19T07:06:33;12.80;99.90
17483;DHT22;8858;52.308;20.994;2023-05-19T07:09:08;12.80;99.90
17483;DHT22;8858;52.308;20.994;2023-05-19T07:11:37;12.80;99.90
17483;DHT22;8858;52.308;20.994;2023-05-19T07:14:11;12.80;99.90
17483;DHT22;8858;52.308;20.994;2023-05-19T07:16:40;12.90;99.90
17483;DHT22;8858;52.308;20.994;2023-05-19T07:19:10;12.90;99.90
17483;DHT22;8858;52.308;20.994;2023-05-19T07:21:38;13.00;99.90
17483;DHT22;8858;52.308;20.994;2023-05-19T07:24:08;12.90;99.90
17483;DHT22;8858;52.308;20.994;2023-05-19T07:26:40;13.00;99.90
17483;DHT22;8858;52.308;20.994;2023-05-19T07:29:08;13.00;99.90
17483;DHT22;8858;52.308;20.994;2023-05-19T07:31:37;13.00;99.90
17483;DHT22;8858;52.308;20.994;2023-05-19T07:34:05;13.00;99.90
17483;DHT22;8858;52.308;20.994;2023-05-19T07:36:35;12.90;99.90
17483;DHT22;8858;52.308;20.994;2023-05-19T07:39:07;12.90;99.90
17483;DHT22;8858;52.308;20.994;2023-05-19T07:41:36;12.90;99.90
17483;DHT22;8858;52.308;20.994;2023-05-19T07:44:04;12.90;99.90
17483;DHT22;8858;52.308;20.994;2023-05-19T07:46:34;13.00;99.90
17483;DHT22;8858;52.308;20.994;2023-05-19T07:49:03;13.00;99.90
17483;DHT22;8858;52.308;20.994;2023-05-19T07:51:38;13.00;99.90
17483;DHT22;8858;52.308;20.994;2023-05-19T07:54:07;13.10;99.90
17483;DHT22;8858;52.308;20.994;2023-05-19T07:56:35;13.10;99.90
17483;DHT22;8858;52.308;20.994;2023-05-19T07:59:04;13.10;99.90
17483;DHT22;8858;52.308;20.994;2023-05-19T08:01:33;13.10;99.90
17483;DHT22;8858;52.308;20.994;2023-05-19T08:04:05;13.20;99.90
17483;DHT22;8858;52.308;20.994;2023-05-19T08:06:39;13.20;99.90
17483;DHT22;8858;52.308;20.994;2023-05-19T08:09:13;13.20;99.90
17483;DHT22;8858;52.308;20.994;2023-05-19T08:11:42;13.20;99.90
17483;DHT22;8858;52.308;20.994;2023-05-19T08:14:10;13.20;99.90
17483;DHT22;8858;52.308;20.994;2023-05-19T08:16:38;13.20;99.90
17483;DHT22;8858;52.308;20.994;2023-05-19T08:19:08;13.20;99.90
17483;DHT22;8858;52.308;20.994;2023-05-19T08:21:39;13.10;99.90
17483;DHT22;8858;52.308;20.994;2023-05-19T08:24:08;13.20;99.90
17483;DHT22;8858;52.308;20.994;2023-05-19T08:26:37;13.20;99.90
17483;DHT22;8858;52.308;20.994;2023-05-19T08:29:05;13.10;99.90
17483;DHT22;8858;52.308;20.994;2023-05-19T08:31:33;13.00;99.90
17483;DHT22;8858;52.308;20.994;2023-05-19T08:34:01;13.10;99.90
17483;DHT22;8858;52.308;20.994;2023-05-19T08:36:30;13.10;99.90
17483;DHT22;8858;52.308;20.994;2023-05-19T08:39:01;13.10;99.90
17483;DHT22;8858;52.308;20.994;2023-05-19T08:41:30;13.10;99.90
17483;DHT22;8858;52.308;20.994;2023-05-19T08:43:58;13.20;99.90
17483;DHT22;8858;52.308;20.994;2023-05-19T08:46:28;13.20;99.90
17483;DHT22;8858;52.308;20.994;2023-05-19T08:49:06;13.10;99.90
17483;DHT22;8858;52.308;20.994;2023-05-19T08:51:40;13.10;99.90
17483;DHT22;8858;52.308;20.994;2023-05-19T08:54:16;13.10;99.90
17483;DHT22;8858;52.308;20.994;2023-05-19T08:56:45;13.00;99.90
17483;DHT22;8858;52.308;20.994;2023-05-19T08:59:14;13.10;99.90
17483;DHT22;8858;52.308;20.994;2023-05-19T09:01:44;13.10;99.90
17483;DHT22;8858;52.308;20.994;2023-05-19T09:04:16;13.10;99.90
17483;DHT22;8858;52.308;20.994;2023-05-19T09:06:44;13.20;99.90
17483;DHT22;8858;52.308;20.994;2023-05-19T09:09:18;13.20;99.90
17483;DHT22;8858;52.308;20.994;2023-05-19T09:11:47;13.20;99.90
17483;DHT22;8858;52.308;20.994;2023-05-19T09:14:15;13.30;99.90
17483;DHT22;8858;52.308;20.994;2023-05-19T09:16:44;13.30;99.90
17483;DHT22;8858;52.308;20.994;2023-05-19T09:19:20;13.30;99.90
17483;DHT22;8858;52.308;20.994;2023-05-19T09:21:57;13.30;99.90
17483;DHT22;8858;52.308;20.994;2023-05-19T09:24:30;13.30;99.90
17483;DHT22;8858;52.308;20.994;2023-05-19T09:27:00;13.40;99.90
17483;DHT22;8858;52.308;20.994;2023-05-19T09:29:29;13.40;99.90
17483;DHT22;8858;52.308;20.994;2023-05-19T09:31:57;13.40;99.90
17483;DHT22;8858;52.308;20.994;2023-05-19T09:34:27;13.50;99.90
17483;DHT22;8858;52.308;20.994;2023-05-19T09:36:55;13.40;99.90
17483;DHT22;8858;52.308;20.994;2023-05-19T09:39:27;13.50;99.90
17483;DHT22;8858;52.308;20.994;2023-05-19T09:42:03;13.50;99.90
17483;DHT22;8858;52.308;20.994;2023-05-19T09:44:34;13.60;99.90
17483;DHT22;8858;52.308;20.994;2023-05-19T09:47:03;13.70;99.90
17483;DHT22;8858;52.308;20.994;2023-05-19T09:49:32;13.70;99.90
17483;DHT22;8858;52.308;20.994;2023-05-19T09:52:02;13.80;99.90
17483;DHT22;8858;52.308;20.994;2023-05-19T09:54:30;13.80;99.90
17483;DHT22;8858;52.308;20.994;2023-05-19T09:57:05;13.90;99.90
17483;DHT22;8858;52.308;20.994;2023-05-19T09:59:35;14.00;99.90
17483;DHT22;8858;52.308;20.994;2023-05-19T10:02:15;14.00;99.90
17483;DHT22;8858;52.308;20.994;2023-05-19T10:04:50;14.00;99.90
17483;DHT22;8858;52.308;20.994;2023-05-19T10:07:20;14.00;99.90
17483;DHT22;8858;52.308;20.994;2023-05-19T10:09:52;14.10;99.90
17483;DHT22;8858;52.308;20.994;2023-05-19T10:12:46;14.10;99.90
17483;DHT22;8858;52.308;20.994;2023-05-19T10:15:18;14.10;99.90
17483;DHT22;8858;52.308;20.994;2023-05-19T10:17:55;14.10;99.90
17483;DHT22;8858;52.308;20.994;2023-05-19T10:20:25;14.20;99.90
17483;DHT22;8858;52.308;20.994;2023-05-19T10:22:54;14.10;99.90
17483;DHT22;8858;52.308;20.994;2023-05-19T10:25:23;14.00;99.90
17483;DHT22;8858;52.308;20.994;2023-05-19T10:27:56;14.00;99.90
17483;DHT22;8858;52.308;20.994;2023-05-19T10:30:29;14.10;99.90
17483;DHT22;8858;52.308;20.994;2023-05-19T10:32:59;14.10;99.90
17483;DHT22;8858;52.308;20.994;2023-05-19T10:38:40;14.10;99.90
17483;DHT22;8858;52.308;20.994;2023-05-19T10:41:15;14.20;99.90
17483;DHT22;8858;52.308;20.994;2023-05-19T10:43:55;14.30;99.90
17483;DHT22;8858;52.308;20.994;2023-05-19T10:46:28;14.50;99.90
17483;DHT22;8858;52.308;20.994;2023-05-19T10:48:58;14.60;99.90
17483;DHT22;8858;52.308;20.994;2023-05-19T10:51:30;14.70;99.90
17483;DHT22;8858;52.308;20.994;2023-05-19T10:54:01;14.70;99.90
17483;DHT22;8858;52.308;20.994;2023-05-19T10:56:31;14.80;99.90
17483;DHT22;8858;52.308;20.994;2023-05-19T10:59:03;14.80;99.90
17483;DHT22;8858;52.308;20.994;2023-05-19T11:01:35;14.80;99.90
17483;DHT22;8858;52.308;20.994;2023-05-19T11:04:06;14.70;99.90
17483;DHT22;8858;52.308;20.994;2023-05-19T11:06:50;14.70;99.90
17483;DHT22;8858;52.308;20.994;2023-05-19T11:09:19;14.70;99.90
17483;DHT22;8858;52.308;20.994;2023-05-19T11:12:06;14.80;99.90
17483;DHT22;8858;52.308;20.994;2023-05-19T11:14:37;14.80;99.90
17483;DHT22;8858;52.308;20.994;2023-05-19T11:17:13;15.00;99.90
17483;DHT22;8858;52.308;20.994;2023-05-19T11:19:52;15.00;99.90
17483;DHT22;8858;52.308;20.994;2023-05-19T11:22:22;15.10;99.90
17483;DHT22;8858;52.308;20.994;2023-05-19T11:24:53;15.10;99.90
17483;DHT22;8858;52.308;20.994;2023-05-19T11:27:25;15.10;99.90
17483;DHT22;8858;52.308;20.994;2023-05-19T11:29:56;15.20;99.90
17483;DHT22;8858;52.308;20.994;2023-05-19T11:32:27;15.10;99.90
17483;DHT22;8858;52.308;20.994;2023-05-19T11:34:56;15.00;99.90
17483;DHT22;8858;52.308;20.994;2023-05-19T11:37:25;15.10;99.90
17483;DHT22;8858;52.308;20.994;2023-05-19T11:39:57;15.10;99.90
17483;DHT22;8858;52.308;20.994;2023-05-19T11:42:25;15.10;99.90
17483;DHT22;8858;52.308;20.994;2023-05-19T11:44:55;15.10;99.90
17483;DHT22;8858;52.308;20.994;2023-05-19T11:47:23;15.10;99.90
17483;DHT22;8858;52.308;20.994;2023-05-19T11:49:53;15.10;99.90
17483;DHT22;8858;52.308;20.994;2023-05-19T11:52:23;15.30;99.90
17483;DHT22;8858;52.308;20.994;2023-05-19T11:54:53;15.40;99.90
17483;DHT22;8858;52.308;20.994;2023-05-19T11:57:22;15.30;99.90
17483;DHT22;8858;52.308;20.994;2023-05-19T11:59:51;15.40;99.90
17483;DHT22;8858;52.308;20.994;2023-05-19T12:02:25;15.40;99.90
17483;DHT22;8858;52.308;20.994;2023-05-19T12:04:54;15.40;99.90
17483;DHT22;8858;52.308;20.994;2023-05-19T12:07:23;15.40;99.90
17483;DHT22;8858;52.308;20.994;2023-05-19T12:09:54;15.50;99.90
17483;DHT22;8858;52.308;20.994;2023-05-19T12:12:24;15.50;99.90
17483;DHT22;8858;52.308;20.994;2023-05-19T12:14:52;15.60;99.90
17483;DHT22;8858;52.308;20.994;2023-05-19T12:17:21;15.60;99.90
17483;DHT22;8858;52.308;20.994;2023-05-19T12:19:51;15.60;99.90
17483;DHT22;8858;52.308;20.994;2023-05-19T12:22:20;15.50;99.90
17483;DHT22;8858;52.308;20.994;2023-05-19T12:24:48;15.70;99.90
17483;DHT22;8858;52.308;20.994;2023-05-19T12:27:18;15.60;99.90
17483;DHT22;8858;52.308;20.994;2023-05-19T12:29:49;15.60;99.90
17483;DHT22;8858;52.308;20.994;2023-05-19T12:32:22;15.60;99.90
17483;DHT22;8858;52.308;20.994;2023-05-19T12:34:54;15.80;99.90
17483;DHT22;8858;52.308;20.994;2023-05-19T12:37:28;15.70;99.90
17483;DHT22;8858;52.308;20.994;2023-05-19T12:39:56;15.70;99.90
17483;DHT22;8858;52.308;20.994;2023-05-19T12:42:26;15.70;99.90
17483;DHT22;8858;52.308;20.994;2023-05-19T12:45:02;15.70;99.90
17483;DHT22;8858;52.308;20.994;2023-05-19T12:47:32;15.70;99.90
17483;DHT22;8858;52.308;20.994;2023-05-19T12:50:07;15.70;99.90
17483;DHT22;8858;52.308;20.994;2023-05-19T12:52:41;15.80;99.90
17483;DHT22;8858;52.308;20.994;2023-05-19T12:55:12;15.70;99.90
17483;DHT22;8858;52.308;20.994;2023-05-19T12:57:43;15.70;99.90
17483;DHT22;8858;52.308;20.994;2023-05-19T13:00:16;15.80;99.90
17483;DHT22;8858;52.308;20.994;2023-05-19T13:03:00;15.70;99.90
17483;DHT22;8858;52.308;20.994;2023-05-19T13:05:35;15.60;99.90
17483;DHT22;8858;52.308;20.994;2023-05-19T13:08:05;15.60;99.90
17483;DHT22;8858;52.308;20.994;2023-05-19T13:10:37;15.70;99.90
17483;DHT22;8858;52.308;20.994;2023-05-19T13:13:07;15.70;99.90
17483;DHT22;8858;52.308;20.994;2023-05-19T13:15:37;15.80;99.90
17483;DHT22;8858;52.308;20.994;2023-05-19T13:18:08;15.70;99.90
17483;DHT22;8858;52.308;20.994;2023-05-19T13:20:39;15.70;99.90
17483;DHT22;8858;52.308;20.994;2023-05-19T13:23:09;15.70;99.90
17483;DHT22;8858;52.308;20.994;2023-05-19T13:25:38;15.80;99.90
17483;DHT22;8858;52.308;20.994;2023-05-19T13:28:10;15.70;99.90
17483;DHT22;8858;52.308;20.994;2023-05-19T13:30:39;15.70;99.90
17483;DHT22;8858;52.308;20.994;2023-05-19T13:33:09;15.70;99.90
17483;DHT22;8858;52.308;20.994;2023-05-19T13:35:39;15.80;99.90
17483;DHT22;8858;52.308;20.994;2023-05-19T13:38:08;15.80;99.90
17483;DHT22;8858;52.308;20.994;2023-05-19T13:40:43;15.90;99.90
17483;DHT22;8858;52.308;20.994;2023-05-19T13:43:12;15.90;99.90
17483;DHT22;8858;52.308;20.994;2023-05-19T13:45:40;15.80;99.90
17483;DHT22;8858;52.308;20.994;2023-05-19T13:48:10;15.70;99.90
17483;DHT22;8858;52.308;20.994;2023-05-19T13:50:40;15.70;99.90
17483;DHT22;8858;52.308;20.994;2023-05-19T13:53:12;15.60;99.90
17483;DHT22;8858;52.308;20.994;2023-05-19T13:55:40;15.70;99.90
17483;DHT22;8858;52.308;20.994;2023-05-19T13:58:08;15.60;99.90
17483;DHT22;8858;52.308;20.994;2023-05-19T14:00:38;15.70;99.90
17483;DHT22;8858;52.308;20.994;2023-05-19T14:03:06;15.70;99.90
17483;DHT22;8858;52.308;20.994;2023-05-19T14:05:40;15.70;99.90
17483;DHT22;8858;52.308;20.994;2023-05-19T14:08:08;15.60;99.90
17483;DHT22;8858;52.308;20.994;2023-05-19T14:10:37;15.60;99.90
17483;DHT22;8858;52.308;20.994;2023-05-19T14:13:05;15.60;99.90
17483;DHT22;8858;52.308;20.994;2023-05-19T14:15:38;15.60;99.90
17483;DHT22;8858;52.308;20.994;2023-05-19T14:18:09;15.60;99.90
17483;DHT22;8858;52.308;20.994;2023-05-19T14:20:37;15.60;99.90
17483;DHT22;8858;52.308;20.994;2023-05-19T14:23:07;15.50;99.90
17483;DHT22;8858;52.308;20.994;2023-05-19T14:25:35;15.50;99.90
17483;DHT22;8858;52.308;20.994;2023-05-19T14:28:04;15.50;99.90
17483;DHT22;8858;52.308;20.994;2023-05-19T14:30:36;15.40;99.90
17483;DHT22;8858;52.308;20.994;2023-05-19T14:33:04;15.40;99.90
17483;DHT22;8858;52.308;20.994;2023-05-19T14:35:33;15.40;99.90
17483;DHT22;8858;52.308;20.994;2023-05-19T14:38:01;15.50;99.90
17483;DHT22;8858;52.308;20.994;2023-05-19T14:40:32;15.50;99.90
17483;DHT22;8858;52.308;20.994;2023-05-19T14:43:02;15.50;99.90
17483;DHT22;8858;52.308;20.994;2023-05-19T14:45:31;15.50;99.90
17483;DHT22;8858;52.308;20.994;2023-05-19T14:48:00;15.50;99.90
17483;DHT22;8858;52.308;20.994;2023-05-19T14:50:29;15.50;99.90
17483;DHT22;8858;52.308;20.994;2023-05-19T14:52:57;15.50;99.90
17483;DHT22;8858;52.308;20.994;2023-05-19T14:55:32;15.40;99.90
17483;DHT22;8858;52.308;20.994;2023-05-19T14:58:00;15.40;99.90
17483;DHT22;8858;52.308;20.994;2023-05-19T15:00:39;15.40;99.90
17483;DHT22;8858;52.308;20.994;2023-05-19T15:03:07;15.40;99.90
17483;DHT22;8858;52.308;20.994;2023-05-19T15:05:35;15.40;99.90
17483;DHT22;8858;52.308;20.994;2023-05-19T15:08:05;15.40;99.90
17483;DHT22;8858;52.308;20.994;2023-05-19T15:10:35;15.40;99.90
17483;DHT22;8858;52.308;20.994;2023-05-19T15:13:06;15.50;99.90
17483;DHT22;8858;52.308;20.994;2023-05-19T15:15:34;15.50;99.90
17483;DHT22;8858;52.308;20.994;2023-05-19T15:18:03;15.40;99.90
17483;DHT22;8858;52.308;20.994;2023-05-19T15:20:32;15.40;99.90
17483;DHT22;8858;52.308;20.994;2023-05-19T15:23:00;15.40;99.90
17483;DHT22;8858;52.308;20.994;2023-05-19T15:25:36;15.40;99.90
17483;DHT22;8858;52.308;20.994;2023-05-19T15:28:04;15.40;99.90
17483;DHT22;8858;52.308;20.994;2023-05-19T15:30:33;15.50;99.90
17483;DHT22;8858;52.308;20.994;2023-05-19T15:33:02;15.40;99.90
17483;DHT22;8858;52.308;20.994;2023-05-19T15:35:31;15.30;99.90
17483;DHT22;8858;52.308;20.994;2023-05-19T15:37:59;15.30;99.90
17483;DHT22;8858;52.308;20.994;2023-05-19T15:40:32;15.20;99.90
17483;DHT22;8858;52.308;20.994;2023-05-19T15:43:02;15.20;99.90
17483;DHT22;8858;52.308;20.994;2023-05-19T15:45:31;15.20;99.90
17483;DHT22;8858;52.308;20.994;2023-05-19T15:48:00;15.20;99.90
17483;DHT22;8858;52.308;20.994;2023-05-19T15:50:32;15.20;99.90
17483;DHT22;8858;52.308;20.994;2023-05-19T15:53:01;15.20;99.90
17483;DHT22;8858;52.308;20.994;2023-05-19T15:55:29;15.20;99.90